Time;durP1;ratioP1;P1;durP2;ratioP2;P2;SDS_P1;SDS_P2;PMS_P1;PMS_P2;Temp;Humidity;BMP_temperature;BMP_pressure;BME280_temperature;BME280_humidity;BME280_pressure;Samples;Min_cycle;Max_cycle;Signal;HPM_P1;HPM_P2
2022/09/10 00:02:25;;;;;;;17.83;16.70;;;;;;;13.56;100.00;101063.16;5051665;28;20459;-56
2022/09/10 00:04:52;;;;;;;18.57;17.47;;;;;;;13.57;100.00;101055.94;5052205;28;20517;-55
2022/09/10 00:07:21;;;;;;;19.73;18.60;;;;;;;13.57;100.00;101053.25;5052013;28;20459;-56
2022/09/10 00:09:49;;;;;;;19.30;18.00;;;;;;;13.56;100.00;101043.59;5052405;28;20435;-55
2022/09/10 00:12:16;;;;;;;17.43;16.33;;;;;;;13.57;100.00;101047.91;5050711;28;20509;-55
2022/09/10 00:14:44;;;;;;;17.70;16.57;;;;;;;13.56;100.00;101047.06;5052181;28;20435;-54
2022/09/10 00:17:12;;;;;;;19.83;18.63;;;;;;;13.55;100.00;101045.44;5052210;28;20455;-55
2022/09/10 00:19:39;;;;;;;19.63;18.27;;;;;;;13.54;100.00;101048.31;5052037;28;20443;-55
2022/09/10 00:22:09;;;;;;;20.27;19.00;;;;;;;13.53;100.00;101046.69;5051336;28;20891;-55
2022/09/10 00:24:38;;;;;;;19.80;18.10;;;;;;;13.54;100.00;101042.97;5052037;28;20501;-55
2022/09/10 00:27:05;;;;;;;23.20;21.70;;;;;;;13.56;100.00;101044.41;5051870;28;20984;-55
2022/09/10 00:29:33;;;;;;;29.00;26.87;;;;;;;13.58;100.00;101046.88;5051914;28;20439;-51
2022/09/10 00:32:03;;;;;;;33.50;31.50;;;;;;;13.64;100.00;101032.66;5051277;28;20525;-54
2022/09/10 00:34:31;;;;;;;31.77;29.67;;;;;;;13.70;100.00;101034.50;5051746;28;20836;-54
2022/09/10 00:36:59;;;;;;;36.43;34.40;;;;;;;13.76;100.00;101025.63;5051850;28;21028;-55
2022/09/10 00:39:26;;;;;;;40.60;38.57;;;;;;;13.79;100.00;101014.47;5051838;28;20496;-55
2022/09/10 00:41:57;;;;;;;46.07;43.57;;;;;;;13.84;100.00;101018.16;5051409;28;20485;-56
2022/09/10 00:45:00;;;;;;;48.07;45.50;;;;;;;13.88;100.00;101026.63;5051784;28;20474;-50
2022/09/10 00:47:33;;;;;;;60.37;56.37;;;;;;;13.92;100.00;101027.03;5051617;28;20470;-50
2022/09/10 00:50:07;;;;;;;53.50;50.70;;;;;;;13.93;100.00;101032.16;5051529;28;20427;-52
2022/09/10 00:52:36;;;;;;;56.50;53.33;;;;;;;13.93;100.00;101034.84;5050172;28;20468;-53
2022/09/10 00:55:08;;;;;;;64.30;60.90;;;;;;;13.92;100.00;101030.50;5051575;28;20420;-53
2022/09/10 00:57:37;;;;;;;67.20;63.50;;;;;;;13.92;100.00;101030.50;5051519;28;21034;-52
2022/09/10 01:00:09;;;;;;;70.20;66.40;;;;;;;13.91;100.00;101033.41;5051696;28;20485;-56
2022/09/10 01:02:37;;;;;;;68.33;64.00;;;;;;;13.89;100.00;101035.50;5051496;28;20509;-56
2022/09/10 01:05:07;;;;;;;71.10;67.13;;;;;;;13.85;100.00;101029.72;5051551;28;20471;-56
2022/09/10 01:07:35;;;;;;;64.93;61.63;;;;;;;13.82;100.00;101032.81;5051442;28;20459;-55
2022/09/10 01:10:06;;;;;;;69.77;65.93;;;;;;;13.81;100.00;101034.66;5051289;28;20923;-54
2022/09/10 01:12:52;;;;;;;73.00;69.43;;;;;;;13.77;100.00;101032.59;5050926;28;20467;-54
2022/09/10 01:15:30;;;;;;;77.27;73.37;;;;;;;13.75;100.00;101038.19;5051422;28;20461;-55
2022/09/10 01:18:11;;;;;;;74.10;70.10;;;;;;;13.74;100.00;101041.06;5051237;28;20459;-52
2022/09/10 01:21:10;;;;;;;85.67;81.40;;;;;;;13.73;100.00;101037.59;5051300;28;20488;-55
2022/09/10 01:24:20;;;;;;;76.57;72.87;;;;;;;13.74;100.00;101049.09;5052463;28;20459;-51
2022/09/10 01:27:26;;;;;;;75.20;71.40;;;;;;;13.73;100.00;101051.00;5055052;28;20455;-56
2022/09/10 01:30:02;;;;;;;74.90;70.87;;;;;;;13.72;100.00;101046.66;5055133;28;20958;-51
2022/09/10 01:32:35;;;;;;;65.97;62.63;;;;;;;13.70;100.00;101051.41;5054635;28;20667;-55
2022/09/10 01:35:13;;;;;;;58.47;55.70;;;;;;;13.70;100.00;101063.97;5054933;28;20427;-54
2022/09/10 01:37:45;;;;;;;71.00;67.67;;;;;;;13.66;100.00;101058.22;5054928;28;20450;-54
2022/09/10 01:40:16;;;;;;;69.77;66.47;;;;;;;13.65;100.00;101053.88;5054962;28;20920;-51
2022/09/10 01:42:45;;;;;;;249.73;241.73;;;;;;;13.63;100.00;101057.78;5054453;28;20474;-53
2022/09/10 01:45:15;;;;;;;239.00;231.20;;;;;;;13.59;100.00;101052.03;5054675;28;20475;-55
2022/09/10 01:48:05;;;;;;;257.23;248.23;;;;;;;13.56;100.00;101057.00;5054615;28;20478;-55
2022/09/10 01:50:41;;;;;;;234.10;226.40;;;;;;;13.51;100.00;101060.28;5054905;28;20435;-55
2022/09/10 01:53:32;;;;;;;233.00;224.70;;;;;;;13.46;100.00;101054.75;5054014;28;20516;-52
2022/09/10 01:56:07;;;;;;;244.40;235.37;;;;;;;13.42;100.00;101055.34;5034671;28;20432;-55
2022/09/10 01:58:38;;;;;;;244.03;235.77;;;;;;;13.39;100.00;101051.22;5034889;28;20436;-55
2022/09/10 02:01:13;;;;;;;237.00;228.90;;;;;;;13.40;100.00;101058.25;5034788;28;20829;-56
2022/09/10 02:03:46;;;;;;;229.70;221.87;;;;;;;13.40;100.00;101049.38;5033961;28;20459;-55
2022/09/10 02:06:18;;;;;;;244.23;236.30;;;;;;;13.40;100.00;101046.69;5034360;28;20472;-55
2022/09/10 02:08:48;;;;;;;259.10;249.90;;;;;;;13.42;100.00;101042.78;5034980;28;20436;-55
2022/09/10 02:11:16;;;;;;;244.40;235.50;;;;;;;13.45;100.00;101044.22;5034589;28;20478;-53
2022/09/10 02:13:45;;;;;;;248.27;240.03;;;;;;;13.46;100.00;101046.69;5033785;28;20464;-53
2022/09/10 02:16:18;;;;;;;249.10;240.40;;;;;;;13.47;100.00;101045.66;5034391;28;20449;-55
2022/09/10 02:18:46;;;;;;;254.20;245.37;;;;;;;13.46;100.00;101045.88;5034241;28;20487;-54
2022/09/10 02:21:14;;;;;;;248.40;239.90;;;;;;;13.43;100.00;101044.44;5034485;28;20860;-54
2022/09/10 02:23:45;;;;;;;256.60;247.53;;;;;;;13.39;100.00;101045.88;5033692;28;20912;-55
2022/09/10 02:26:14;;;;;;;232.83;225.17;;;;;;;13.39;100.00;101053.06;5034180;28;20598;-53
2022/09/10 02:28:43;;;;;;;237.03;228.97;;;;;;;13.38;100.00;101051.44;5034287;28;21004;-55
2022/09/10 02:31:12;;;;;;;250.00;240.87;;;;;;;13.39;100.00;101045.88;5033988;28;20846;-55
2022/09/10 02:33:40;;;;;;;256.00;246.50;;;;;;;13.41;100.00;101046.47;5033305;28;20495;-54
2022/09/10 02:36:07;;;;;;;250.20;241.77;;;;;;;13.44;100.00;101048.75;5033143;28;20857;-55
2022/09/10 02:38:35;;;;;;;251.40;242.97;;;;;;;13.45;100.00;101045.03;5034244;28;20440;-51
2022/09/10 02:41:03;;;;;;;246.30;236.80;;;;;;;13.48;100.00;101043.78;5033791;28;20443;-55
2022/09/10 02:43:30;;;;;;;260.30;250.80;;;;;;;13.49;100.00;101040.94;5033182;28;20471;-52
2022/09/10 02:45:58;;;;;;;280.63;269.87;;;;;;;13.49;100.00;101046.28;5033477;28;20472;-55
2022/09/10 02:48:29;;;;;;;274.30;264.53;;;;;;;13.50;100.00;101049.78;5033932;28;20535;-55
2022/09/10 02:50:57;;;;;;;285.13;274.53;;;;;;;13.51;100.00;101043.38;5033913;28;20833;-55
2022/09/10 02:53:25;;;;;;;285.33;274.73;;;;;;;13.52;100.00;101042.34;5050032;28;20459;-55
2022/09/10 02:55:53;;;;;;;289.50;278.80;;;;;;;13.56;100.00;101046.28;5053505;28;20526;-55
2022/09/10 02:58:20;;;;;;;297.77;286.77;;;;;;;13.58;100.00;101055.75;5053429;28;20473;-55
2022/09/10 03:00:48;;;;;;;304.60;292.60;;;;;;;13.58;100.00;101061.13;5053737;28;20439;-55
2022/09/10 03:03:16;;;;;;;310.97;298.97;;;;;;;13.59;100.00;101051.22;5052789;28;20469;-55
2022/09/10 03:05:46;;;;;;;303.13;291.77;;;;;;;13.61;100.00;101051.84;5053347;28;20471;-55
2022/09/10 03:08:13;;;;;;;305.70;294.27;;;;;;;13.64;100.00;101044.19;5053323;28;20437;-53
2022/09/10 03:10:41;;;;;;;325.77;313.10;;;;;;;13.66;100.00;101055.53;5053188;28;20434;-55
2022/09/10 03:13:08;;;;;;;322.37;309.93;;;;;;;13.68;100.00;101052.63;5052592;28;20467;-55
2022/09/10 03:15:37;;;;;;;321.90;309.10;;;;;;;13.67;100.00;101043.78;5053405;28;20840;-55
2022/09/10 03:18:05;;;;;;;322.43;309.20;;;;;;;13.67;100.00;101048.31;5053207;28;20451;-55
2022/09/10 03:20:33;;;;;;;311.67;299.17;;;;;;;13.67;100.00;101048.31;5053098;28;20990;-55
2022/09/10 03:23:02;;;;;;;298.60;286.53;;;;;;;13.66;100.00;101050.16;5052387;28;20497;-54
2022/09/10 03:25:29;;;;;;;310.73;298.40;;;;;;;13.65;100.00;101048.50;5052890;28;20879;-52
2022/09/10 03:27:58;;;;;;;303.30;291.23;;;;;;;13.65;100.00;101053.88;5053107;28;21017;-53
2022/09/10 03:30:26;;;;;;;315.07;302.47;;;;;;;13.61;100.00;101049.16;5052905;28;20778;-54
2022/09/10 03:32:54;;;;;;;318.10;305.30;;;;;;;13.61;100.00;101041.94;5052252;28;20467;-56
2022/09/10 03:35:21;;;;;;;321.83;308.93;;;;;;;13.59;100.00;101030.59;5052740;28;21122;-55
2022/09/10 03:37:49;;;;;;;318.80;305.97;;;;;;;13.57;100.00;101043.38;5052837;28;20508;-55
2022/09/10 03:40:18;;;;;;;311.70;299.20;;;;;;;13.56;100.00;101052.44;5053001;28;20435;-54
2022/09/10 03:42:45;;;;;;;309.13;297.43;;;;;;;13.56;100.00;101057.00;5052142;28;20471;-55
2022/09/10 03:45:13;;;;;;;323.63;310.53;;;;;;;13.53;100.00;101063.56;5051379;28;20497;-52
2022/09/10 03:47:41;;;;;;;328.90;315.07;;;;;;;13.54;100.00;101059.88;5052203;28;20467;-55
2022/09/10 03:50:09;;;;;;;331.17;317.33;;;;;;;13.54;100.00;101061.72;5052464;28;20489;-50
2022/09/10 03:52:36;;;;;;;330.47;316.87;;;;;;;13.54;100.00;101062.56;5049645;28;20464;-55
2022/09/10 03:55:05;;;;;;;328.40;314.73;;;;;;;13.53;100.00;101060.09;5052389;28;20477;-55
2022/09/10 03:57:34;;;;;;;329.40;315.90;;;;;;;13.50;100.00;101063.19;5026352;28;20859;-51
2022/09/10 04:00:01;;;;;;;321.90;309.17;;;;;;;13.50;100.00;101069.34;5051810;28;20488;-55
2022/09/10 04:02:29;;;;;;;325.47;312.47;;;;;;;13.50;100.00;101072.03;5051562;28;20442;-55
2022/09/10 04:04:57;;;;;;;323.93;310.87;;;;;;;13.50;100.00;101065.88;5051954;28;20937;-55
2022/09/10 04:07:24;;;;;;;324.63;312.00;;;;;;;13.51;100.00;101067.50;5051557;28;20471;-55
2022/09/10 04:09:52;;;;;;;333.13;319.33;;;;;;;13.50;100.00;101068.53;5052126;28;20431;-54
2022/09/10 04:12:19;;;;;;;322.57;309.47;;;;;;;13.48;100.00;101075.94;5051965;28;20496;-55
2022/09/10 04:14:48;;;;;;;322.93;310.23;;;;;;;13.50;100.00;101072.03;5051786;28;20471;-50
2022/09/10 04:17:16;;;;;;;325.53;312.70;;;;;;;13.53;100.00;101074.28;5050167;28;20474;-55
2022/09/10 04:19:44;;;;;;;334.93;320.77;;;;;;;13.55;100.00;101077.59;5052058;28;20435;-53
2022/09/10 04:22:12;;;;;;;326.53;312.10;;;;;;;13.58;100.00;101077.19;5051837;28;20505;-55
2022/09/10 04:24:41;;;;;;;337.37;323.77;;;;;;;13.60;100.00;101085.00;5051941;28;20489;-55
2022/09/10 04:27:08;;;;;;;338.93;324.97;;;;;;;13.59;100.00;101084.19;5051332;28;20471;-55
2022/09/10 04:29:36;;;;;;;340.60;326.03;;;;;;;13.60;100.00;101082.31;5051359;28;20493;-53
2022/09/10 04:32:06;;;;;;;333.20;320.00;;;;;;;13.60;100.00;101072.44;5051453;28;20794;-52
2022/09/10 04:34:33;;;;;;;338.23;325.07;;;;;;;13.64;100.00;101075.53;5051760;28;20500;-56
2022/09/10 04:37:01;;;;;;;335.10;321.47;;;;;;;13.65;100.00;101077.19;5051243;28;20471;-54
2022/09/10 04:39:28;;;;;;;325.37;312.77;;;;;;;13.68;100.00;101080.25;5051592;28;20925;-56
2022/09/10 04:41:56;;;;;;;339.00;325.57;;;;;;;13.67;100.00;101078.63;5051670;28;20436;-55
2022/09/10 04:44:24;;;;;;;319.13;306.13;;;;;;;13.71;100.00;101079.00;5050763;28;20439;-55
2022/09/10 04:46:52;;;;;;;330.47;316.50;;;;;;;13.72;100.00;101086.84;5051190;28;20474;-55
2022/09/10 04:49:20;;;;;;;332.20;318.17;;;;;;;13.74;100.00;101087.47;5031542;28;20872;-55
2022/09/10 04:51:48;;;;;;;341.47;327.53;;;;;;;13.78;100.00;101091.38;5034664;28;20550;-55
2022/09/10 04:54:16;;;;;;;343.57;329.03;;;;;;;13.81;100.00;101093.63;5051268;28;20431;-53
2022/09/10 04:56:46;;;;;;;333.37;319.73;;;;;;;13.84;100.00;101098.59;5050764;28;20924;-55
2022/09/10 04:59:13;;;;;;;334.13;320.33;;;;;;;13.85;100.00;101092.19;5050262;28;20439;-56
2022/09/10 05:01:41;;;;;;;327.80;314.57;;;;;;;13.89;100.00;101089.09;5051021;28;20440;-55
2022/09/10 05:04:09;;;;;;;324.00;310.43;;;;;;;13.92;100.00;101094.84;5051292;28;20431;-54
2022/09/10 05:06:38;;;;;;;324.50;310.93;;;;;;;13.96;100.00;101081.84;5050732;28;20509;-54
2022/09/10 05:09:05;;;;;;;324.57;310.90;;;;;;;13.99;100.00;101086.78;5051522;28;20990;-53
2022/09/10 05:11:33;;;;;;;330.63;316.43;;;;;;;14.01;100.00;101088.22;5046829;28;20512;-54
2022/09/10 05:14:01;;;;;;;327.97;314.23;;;;;;;14.05;100.00;101091.31;5049482;28;20481;-48
2022/09/10 05:16:28;;;;;;;324.73;311.30;;;;;;;14.08;100.00;101085.53;5049933;28;20790;-53
2022/09/10 05:18:58;;;;;;;327.30;313.80;;;;;;;14.09;100.00;101087.19;5050763;28;20534;-54
2022/09/10 05:21:25;;;;;;;325.17;311.83;;;;;;;14.13;100.00;101091.06;5049293;28;20443;-53
2022/09/10 05:23:54;;;;;;;333.17;319.97;;;;;;;14.15;100.00;101089.84;5045901;28;21816;-53
2022/09/10 05:26:22;;;;;;;332.43;319.07;;;;;;;14.17;100.00;101093.13;5048573;28;20478;-55
2022/09/10 05:28:51;;;;;;;330.47;317.17;;;;;;;14.22;100.00;101093.31;5048868;28;20812;-51
2022/09/10 05:31:19;;;;;;;354.13;340.60;;;;;;;14.26;100.00;101088.34;5048807;28;20427;-55
2022/09/10 05:33:47;;;;;;;343.40;330.00;;;;;;;14.27;100.00;101098.91;5047621;28;20519;-52
2022/09/10 05:36:15;;;;;;;338.60;325.20;;;;;;;14.33;100.00;101091.88;5048992;28;21002;-55
2022/09/10 05:38:44;;;;;;;350.33;335.97;;;;;;;14.37;100.00;101093.91;5048548;28;20516;-54
2022/09/10 05:41:13;;;;;;;343.93;330.90;;;;;;;14.46;100.00;101093.66;5048696;28;20442;-54
2022/09/10 05:43:41;;;;;;;347.13;333.60;;;;;;;14.49;100.00;101094.06;5046554;28;20496;-56
2022/09/10 05:46:09;;;;;;;335.40;322.63;;;;;;;14.56;100.00;101102.91;5046881;28;20876;-56
2022/09/10 05:48:38;;;;;;;327.07;314.67;;;;;;;14.58;100.00;101106.19;5046237;28;20840;-56
2022/09/10 05:51:08;;;;;;;346.47;332.73;;;;;;;14.62;100.00;101110.13;5042885;28;20863;-52
2022/09/10 05:53:37;;;;;;;352.47;338.23;;;;;;;14.66;100.00;101108.66;5048178;28;20493;-56
2022/09/10 05:56:06;;;;;;;354.97;341.00;;;;;;;14.70;100.00;101107.19;5050056;28;20532;-56
2022/09/10 05:58:35;;;;;;;354.70;340.67;;;;;;;14.72;100.00;101107.81;5049405;28;20455;-54
2022/09/10 06:01:02;;;;;;;362.27;347.87;;;;;;;14.73;100.00;101114.81;5049591;28;20963;-51
2022/09/10 06:03:30;;;;;;;348.00;334.80;;;;;;;14.77;100.00;101123.25;5049366;28;20465;-55
2022/09/10 06:05:58;;;;;;;346.77;333.60;;;;;;;14.79;100.00;101119.31;5049433;28;20497;-55
2022/09/10 06:08:26;;;;;;;352.10;338.80;;;;;;;14.80;100.00;101123.66;5043843;28;20514;-54
2022/09/10 06:10:55;;;;;;;343.87;330.30;;;;;;;14.85;100.00;101117.63;5050524;28;20439;-56
2022/09/10 06:13:23;;;;;;;344.40;331.73;;;;;;;14.89;100.00;101119.69;5052498;28;20963;-56
2022/09/10 06:15:52;;;;;;;342.07;329.37;;;;;;;14.95;100.00;101124.19;5053291;28;20439;-55
2022/09/10 06:18:20;;;;;;;341.00;328.60;;;;;;;14.98;100.00;101122.09;5052230;28;20512;-54
2022/09/10 06:20:47;;;;;;;340.03;327.70;;;;;;;15.02;100.00;101126.00;5054194;28;20482;-51
2022/09/10 06:23:16;;;;;;;338.47;326.07;;;;;;;15.06;100.00;101122.66;5053024;28;20439;-53
2022/09/10 06:25:44;;;;;;;335.73;323.63;;;;;;;15.15;100.00;101126.75;5053592;28;20435;-54
2022/09/10 06:28:13;;;;;;;346.10;333.40;;;;;;;15.25;100.00;101123.59;5053032;28;20471;-55
2022/09/10 06:30:40;;;;;;;336.30;323.20;;;;;;;15.36;100.00;101128.25;5053062;28;20431;-54
2022/09/10 06:33:11;;;;;;;335.60;323.50;;;;;;;15.47;100.00;101125.69;5052581;28;20526;-53
2022/09/10 06:35:38;;;;;;;350.63;337.70;;;;;;;15.49;100.00;101138.94;5053534;28;20493;-56
2022/09/10 06:38:06;;;;;;;350.53;337.80;;;;;;;15.51;100.00;101136.84;5052959;28;20459;-56
2022/09/10 06:40:33;;;;;;;340.23;327.83;;;;;;;15.52;100.00;101133.13;5053138;28;20431;-56
2022/09/10 06:43:01;;;;;;;338.07;326.07;;;;;;;15.56;100.00;101137.00;5052176;28;20485;-54
2022/09/10 06:45:29;;;;;;;334.00;322.20;;;;;;;15.62;100.00;101129.94;5053005;28;20444;-55
2022/09/10 06:47:59;;;;;;;345.80;333.40;;;;;;;15.69;100.00;101136.06;5052483;28;20470;-50
2022/09/10 06:50:53;;;;;;;338.60;326.43;;;;;;;15.70;100.00;101133.19;5052636;28;20584;-54
2022/09/10 06:53:21;;;;;;;343.97;331.33;;;;;;;15.69;100.00;101134.22;5051596;28;20497;-55
2022/09/10 06:55:50;;;;;;;349.47;336.77;;;;;;;15.80;100.00;101144.22;5052759;28;20422;-54
2022/09/10 06:58:19;;;;;;;342.57;329.67;;;;;;;15.89;100.00;101136.69;5052500;28;20451;-56
2022/09/10 07:00:47;;;;;;;342.83;330.50;;;;;;;15.92;100.00;101142.47;5052774;28;20558;-53
2022/09/10 07:03:15;;;;;;;342.23;330.13;;;;;;;15.97;100.00;101139.13;5041305;28;20513;-55
2022/09/10 07:05:44;;;;;;;333.77;321.60;;;;;;;16.10;100.00;101143.56;5050199;28;20435;-52
2022/09/10 07:08:14;;;;;;;325.70;314.53;;;;;;;16.13;100.00;101149.28;5052119;28;20483;-56
2022/09/10 07:10:44;;;;;;;324.20;312.67;;;;;;;16.18;100.00;101148.63;5052684;28;20428;-54
2022/09/10 07:13:12;;;;;;;321.40;309.90;;;;;;;16.33;100.00;101151.78;5051197;28;20454;-56
2022/09/10 07:15:45;;;;;;;315.57;305.07;;;;;;;16.45;100.00;101152.69;5050350;28;20428;-54
2022/09/10 07:18:14;;;;;;;317.63;306.83;;;;;;;16.60;100.00;101153.16;5049882;28;20471;-56
2022/09/10 07:20:42;;;;;;;318.97;308.20;;;;;;;16.70;100.00;101156.13;5051254;28;20427;-56
2022/09/10 07:23:10;;;;;;;304.97;294.67;;;;;;;16.81;100.00;101165.31;5050637;28;20459;-56
2022/09/10 07:25:41;;;;;;;294.97;285.57;;;;;;;16.90;100.00;101158.56;5044993;28;20438;-56
2022/09/10 07:28:12;;;;;;;299.60;290.03;;;;;;;16.94;100.00;101159.72;5050941;28;20529;-56
2022/09/10 07:30:40;;;;;;;288.80;279.70;;;;;;;17.06;100.00;101158.75;5052061;28;20492;-56
2022/09/10 07:33:09;;;;;;;278.07;269.53;;;;;;;17.12;100.00;101163.22;5050277;28;21167;-56
2022/09/10 07:35:38;;;;;;;290.63;281.30;;;;;;;17.18;100.00;101164.16;5052269;28;21085;-54
2022/09/10 07:38:06;;;;;;;274.93;266.53;;;;;;;17.23;100.00;101166.19;5050130;28;20464;-54
2022/09/10 07:40:34;;;;;;;288.00;279.00;;;;;;;17.24;100.00;101168.63;5051296;28;20431;-55
2022/09/10 07:43:03;;;;;;;290.77;281.57;;;;;;;17.26;100.00;101165.72;5050150;28;20435;-54
2022/09/10 07:45:31;;;;;;;281.53;272.60;;;;;;;17.29;100.00;101171.50;5051618;28;20998;-56
2022/09/10 07:47:58;;;;;;;273.67;265.27;;;;;;;17.28;100.00;101169.84;5050627;28;21018;-56
2022/09/10 07:50:26;;;;;;;258.63;250.73;;;;;;;17.30;100.00;101170.41;5050135;28;20480;-56
2022/09/10 07:52:55;;;;;;;252.30;244.53;;;;;;;17.33;100.00;101180.75;5049129;28;20438;-55
2022/09/10 07:55:23;;;;;;;258.07;250.37;;;;;;;17.39;100.00;101181.69;5050914;28;20920;-54
2022/09/10 07:57:50;;;;;;;248.47;240.87;;;;;;;17.40;100.00;101180.66;5050958;28;20516;-56
2022/09/10 08:00:19;;;;;;;230.57;223.43;;;;;;;17.50;100.00;101184.41;5050740;28;20488;-55
2022/09/10 08:02:47;;;;;;;224.13;217.07;;;;;;;17.53;100.00;101185.84;5049674;28;20431;-56
2022/09/10 08:05:15;;;;;;;241.27;233.43;;;;;;;17.60;100.00;101184.72;5050427;28;20427;-56
2022/09/10 08:07:43;;;;;;;199.70;193.53;;;;;;;17.65;100.00;101192.13;5050657;28;20462;-56
2022/09/10 08:10:12;;;;;;;220.57;213.93;;;;;;;17.73;100.00;101194.47;5050825;28;20439;-55
2022/09/10 08:12:40;;;;;;;183.00;177.17;;;;;;;17.81;100.00;101194.13;5046725;28;20924;-54
2022/09/10 08:15:09;;;;;;;166.93;161.63;;;;;;;18.00;100.00;101190.28;5050156;28;20446;-56
2022/09/10 08:17:39;;;;;;;136.53;132.00;;;;;;;18.21;100.00;101197.78;5050626;28;20470;-56
2022/09/10 08:20:08;;;;;;;107.60;104.00;;;;;;;18.23;100.00;101203.75;5049342;28;20542;-56
2022/09/10 08:22:36;;;;;;;71.90;68.80;;;;;;;18.43;100.00;101203.38;5050238;28;20698;-56
2022/09/10 08:25:04;;;;;;;49.73;47.43;;;;;;;18.49;100.00;101207.84;5050057;28;20440;-56
2022/09/10 08:27:33;;;;;;;23.83;22.40;;;;;;;18.64;100.00;101212.75;5044756;28;20471;-56
2022/09/10 08:30:00;;;;;;;21.00;19.30;;;;;;;18.75;100.00;101212.75;5050266;28;20876;-56
2022/09/10 08:32:28;;;;;;;17.90;16.37;;;;;;;18.89;100.00;101216.00;5049742;28;20439;-56
2022/09/10 08:34:57;;;;;;;33.43;25.07;;;;;;;18.95;100.00;101214.22;5049757;28;20435;-56
2022/09/10 08:37:24;;;;;;;17.23;15.90;;;;;;;19.04;100.00;101219.00;5050311;28;20520;-57
2022/09/10 08:39:52;;;;;;;17.43;16.07;;;;;;;18.96;100.00;101219.41;5050163;28;20977;-49
2022/09/10 08:42:25;;;;;;;15.80;14.80;;;;;;;18.93;100.00;101213.66;5040443;28;20500;-53
2022/09/10 08:44:58;;;;;;;14.70;13.87;;;;;;;18.90;100.00;101222.22;5047904;28;20986;-52
2022/09/10 08:47:33;;;;;;;30.30;20.40;;;;;;;18.89;100.00;101226.81;5050192;28;20887;-54
2022/09/10 08:50:12;;;;;;;15.70;14.10;;;;;;;18.86;100.00;101223.75;5042184;28;20527;-51
2022/09/10 08:52:45;;;;;;;15.10;14.07;;;;;;;18.95;100.00;101215.03;5049870;28;20435;-49
2022/09/10 08:55:22;;;;;;;14.37;13.20;;;;;;;18.97;100.00;101237.25;5044731;28;20476;-52
2022/09/10 08:57:55;;;;;;;15.07;13.97;;;;;;;19.00;100.00;101223.25;5049839;28;20462;-50
2022/09/10 09:00:24;;;;;;;12.70;11.90;;;;;;;18.92;100.00;101230.91;5049976;28;20835;-50
2022/09/10 09:03:00;;;;;;;14.10;13.20;;;;;;;19.11;100.00;101232.38;5049374;28;20854;-53
2022/09/10 09:05:39;;;;;;;14.40;13.40;;;;;;;19.27;100.00;101235.13;5050331;28;20419;-51
2022/09/10 09:08:07;;;;;;;14.00;13.10;;;;;;;19.50;100.00;101231.53;5049400;28;20527;-53
2022/09/10 09:10:44;;;;;;;14.30;13.50;;;;;;;19.52;100.00;101236.69;5049692;28;20485;-53
2022/09/10 09:13:46;;;;;;;15.80;14.50;;;;;;;19.59;100.00;101242.78;5048739;28;20492;-52
2022/09/10 09:16:27;;;;;;;14.47;13.37;;;;;;;19.65;100.00;101242.59;5050621;28;20450;-51
2022/09/10 09:19:06;;;;;;;13.13;12.40;;;;;;;19.87;100.00;101240.84;5038491;28;20489;-56
2022/09/10 09:21:46;;;;;;;13.87;12.87;;;;;;;20.02;100.00;101237.56;5049812;28;20423;-51
2022/09/10 09:24:22;;;;;;;13.53;12.83;;;;;;;20.12;98.04;101243.13;5049063;28;20484;-51
2022/09/10 09:26:50;;;;;;;12.10;11.50;;;;;;;19.97;98.46;101242.06;5047851;28;20454;-49
2022/09/10 09:29:22;;;;;;;14.20;13.10;;;;;;;20.25;99.62;101240.09;5049686;28;20624;-53
2022/09/10 09:31:55;;;;;;;14.43;13.40;;;;;;;20.39;96.62;101235.19;5043886;28;20835;-52
2022/09/10 09:34:30;;;;;;;13.70;12.90;;;;;;;20.65;97.17;101245.28;5047607;28;20442;-50
2022/09/10 09:37:04;;;;;;;14.20;13.07;;;;;;;20.61;94.25;101246.06;5041055;28;20540;-55
2022/09/10 09:39:38;;;;;;;12.83;12.13;;;;;;;20.73;91.94;101244.03;5048969;28;20419;-54
2022/09/10 09:42:14;;;;;;;13.13;12.13;;;;;;;20.54;92.46;101248.13;5046866;28;20433;-58
2022/09/10 09:44:49;;;;;;;13.70;12.70;;;;;;;20.47;93.54;101259.13;5050577;28;20953;-49
2022/09/10 09:47:23;;;;;;;13.60;12.70;;;;;;;20.46;91.19;101246.63;5053285;28;20466;-51
2022/09/10 09:49:51;;;;;;;13.30;12.50;;;;;;;20.73;94.48;101244.84;5053396;28;21255;-54
2022/09/10 09:52:22;;;;;;;13.23;12.53;;;;;;;20.87;90.93;101239.88;5053492;28;20434;-54
2022/09/10 09:54:53;;;;;;;12.97;12.20;;;;;;;20.80;88.99;101241.94;5053032;28;20952;-52
2022/09/10 09:57:41;;;;;;;12.50;11.70;;;;;;;20.89;89.45;101245.88;5053322;28;20894;-52
2022/09/10 10:00:33;;;;;;;11.80;11.20;;;;;;;21.03;91.26;101252.53;5053520;28;20426;-53
2022/09/10 10:03:05;;;;;;;12.10;11.40;;;;;;;20.99;89.18;101256.84;5052595;28;21004;-56
2022/09/10 10:05:33;;;;;;;12.57;11.77;;;;;;;21.03;89.40;101249.03;5053930;28;20431;-52
2022/09/10 10:08:02;;;;;;;11.03;10.20;;;;;;;21.25;88.36;101255.28;5052936;28;20528;-52
2022/09/10 10:10:30;;;;;;;11.77;11.10;;;;;;;20.83;89.11;101253.13;5053178;28;20478;-49
2022/09/10 10:12:57;;;;;;;9.27;8.87;;;;;;;20.76;89.57;101246.22;5051467;28;20481;-47
2022/09/10 10:15:36;;;;;;;9.23;8.73;;;;;;;20.79;89.09;101251.97;5052048;28;20435;-47
2022/09/10 10:18:30;;;;;;;9.53;8.93;;;;;;;20.86;89.00;101249.06;5052782;28;20498;-52
2022/09/10 10:21:14;;;;;;;7.93;7.43;;;;;;;20.84;86.67;101252.06;5053349;28;20427;-45
2022/09/10 10:23:43;;;;;;;7.70;7.27;;;;;;;21.02;87.49;101258.22;5051017;28;20932;-56
2022/09/10 10:26:33;;;;;;;7.33;6.93;;;;;;;20.92;82.33;101261.63;5044833;28;20525;-52
2022/09/10 10:29:05;;;;;;;7.47;6.80;;;;;;;20.60;83.75;101249.81;5047628;28;20483;-48
2022/09/10 10:31:37;;;;;;;6.60;6.40;;;;;;;20.58;84.77;101255.47;5053262;28;20431;-52
2022/09/10 10:34:29;;;;;;;6.70;6.47;;;;;;;20.55;84.82;101264.09;5051843;28;20419;-50
2022/09/10 10:37:05;;;;;;;6.10;5.60;;;;;;;20.38;84.14;101263.31;5052531;28;20470;-44
2022/09/10 10:39:54;;;;;;;5.93;5.63;;;;;;;20.21;82.68;101262.50;5044606;28;20427;-51
2022/09/10 10:42:27;;;;;;;6.13;5.83;;;;;;;20.23;84.46;101265.78;5052299;28;20526;-44
2022/09/10 10:45:07;;;;;;;6.10;5.70;;;;;;;20.28;83.18;101269.41;5052102;28;20423;-51
2022/09/10 10:47:44;;;;;;;5.53;5.13;;;;;;;20.27;83.58;101265.06;5052200;28;20462;-45
2022/09/10 10:50:25;;;;;;;5.73;5.50;;;;;;;20.23;82.14;101268.47;5043607;28;20463;-46
2022/09/10 10:53:11;;;;;;;6.20;5.43;;;;;;;20.16;82.82;101257.81;5051462;28;20435;-45
2022/09/10 10:55:44;;;;;;;5.23;4.90;;;;;;;20.16;83.77;101259.72;5048136;28;20541;-46
2022/09/10 10:58:30;;;;;;;5.00;4.80;;;;;;;20.23;84.09;101257.63;5052255;28;20481;-48
2022/09/10 11:01:05;;;;;;;5.63;5.23;;;;;;;20.30;83.98;101251.03;5049763;28;20765;-47
2022/09/10 11:03:38;;;;;;;4.60;4.50;;;;;;;20.24;82.89;101267.41;5051450;28;20430;-45
2022/09/10 11:06:11;;;;;;;5.37;5.07;;;;;;;20.29;83.51;101259.38;5052473;28;20447;-51
2022/09/10 11:08:44;;;;;;;4.73;4.53;;;;;;;20.30;81.95;101261.03;5051630;28;20459;-47
2022/09/10 11:11:17;;;;;;;4.60;4.40;;;;;;;20.39;81.64;101257.66;5051904;28;20825;-50
2022/09/10 11:13:51;;;;;;;4.70;4.50;;;;;;;20.43;80.13;101264.22;5050772;28;20950;-51